createdAt,value
2022-11-29T00:07:31.506Z,14.00
2022-11-29T00:22:33.425Z,15.20
2022-11-29T00:37:35.429Z,14.35
2022-11-29T00:52:37.266Z,13.68
2022-11-29T01:07:39.180Z,13.00
2022-11-29T01:22:41.292Z,13.75
2022-11-29T01:37:43.212Z,13.10
2022-11-29T01:52:46.401Z,14.73
2022-11-29T02:07:52.280Z,15.07
2022-11-29T02:23:15.590Z,14.23
2022-11-29T02:38:23.410Z,15.00
2022-11-29T02:53:42.551Z,15.27
2022-11-29T03:09:02.893Z,15.20
2022-11-29T03:24:51.170Z,14.93
2022-11-29T03:40:18.611Z,14.13
2022-11-29T03:55:54.711Z,14.63
2022-11-29T04:11:34.410Z,13.48
2022-11-29T04:26:48.252Z,13.27
2022-11-29T04:42:17.458Z,14.52
2022-11-29T04:57:33.432Z,13.27
2022-11-29T05:13:10.811Z,12.82
2022-11-29T05:28:23.811Z,14.05
2022-11-29T05:43:43.953Z,13.43
2022-11-29T05:58:58.529Z,12.57
2022-11-29T06:14:20.312Z,12.98
2022-11-29T06:29:30.089Z,13.43
2022-11-29T06:44:32.270Z,13.63
2022-11-29T07:00:18.870Z,13.02
2022-11-29T07:15:22.830Z,14.50
2022-11-29T07:30:31.050Z,13.80
2022-11-29T07:45:36.989Z,13.82
2022-11-29T08:00:39.932Z,13.60
2022-11-29T08:15:45.940Z,13.60
2022-11-29T08:30:47.967Z,14.48
2022-11-29T08:45:52.707Z,16.15
2022-11-29T09:00:55.226Z,16.33
2022-11-29T09:15:57.802Z,17.02
2022-11-29T09:31:08.089Z,15.27
2022-11-29T09:46:25.584Z,15.88
2022-11-29T10:01:32.777Z,14.95
2022-11-29T10:16:45.812Z,15.93
2022-11-29T10:31:49.762Z,14.65
2022-11-29T10:46:52.887Z,14.15
2022-11-29T11:01:55.384Z,14.80
2022-11-29T11:17:14.031Z,13.98
2022-11-29T11:32:20.017Z,14.23
2022-11-29T11:47:24.591Z,13.73
2022-11-29T12:02:26.939Z,14.10
2022-11-29T12:17:49.330Z,13.55
2022-11-29T12:33:03.165Z,12.65
2022-11-29T12:48:26.665Z,14.52
2022-11-29T13:03:49.201Z,14.50
2022-11-29T13:18:54.201Z,13.65
2022-11-29T13:34:06.265Z,12.60
2022-11-29T13:49:20.984Z,14.48
2022-11-29T14:04:46.293Z,12.75
2022-11-29T14:19:48.429Z,13.50
2022-11-29T14:35:08.672Z,12.80
2022-11-29T14:50:35.861Z,13.53
2022-11-29T15:05:47.284Z,14.25
2022-11-29T15:21:01.313Z,13.15
2022-11-29T15:36:09.685Z,14.82
2022-11-29T15:51:29.509Z,13.40
2022-11-29T16:06:42.739Z,13.57
2022-11-29T16:21:45.040Z,13.20
2022-11-29T16:36:47.027Z,13.48
2022-11-29T16:51:49.424Z,13.80
2022-11-29T17:06:51.462Z,14.30
2022-11-29T17:21:53.382Z,14.73
2022-11-29T17:36:55.242Z,15.82
2022-11-29T17:51:57.158Z,15.23
2022-11-29T18:06:59.487Z,16.95
2022-11-29T18:22:02.917Z,15.50
2022-11-29T18:37:04.922Z,15.77
2022-11-29T18:52:06.878Z,15.20
2022-11-29T19:07:08.780Z,14.63
2022-11-29T19:22:10.759Z,14.88
2022-11-29T19:37:12.657Z,15.23
2022-11-29T19:52:14.570Z,14.25
2022-11-29T20:07:16.503Z,16.08
2022-11-29T20:22:18.479Z,14.88
2022-11-29T20:38:07.016Z,15.98
2022-11-29T20:53:36.655Z,15.40
2022-11-29T21:08:38.578Z,15.27
2022-11-29T21:24:32.617Z,15.07
2022-11-29T21:39:35.038Z,14.23
2022-11-29T21:54:36.928Z,14.30
2022-11-29T22:09:38.999Z,14.20
2022-11-29T22:24:41.056Z,13.93
2022-11-29T22:39:42.908Z,13.55
2022-11-29T22:54:45.220Z,13.90
2022-11-29T23:09:47.469Z,14.23
2022-11-29T23:24:49.303Z,13.65
2022-11-29T23:39:51.179Z,12.95
2022-11-29T23:54:53.077Z,13.68
